Time;durP1;ratioP1;P1;durP2;ratioP2;P2;SDS_P1;SDS_P2;PMS_P1;PMS_P2;Temp;Humidity;BMP_temperature;BMP_pressure;BME280_temperature;BME280_humidity;BME280_pressure;Samples;Min_cycle;Max_cycle;Signal;HPM_P1;HPM_P2
2023/05/30 00:01:23;;;;;;;9.77;4.30;;;;;;;15.62;63.35;97559.63;6155074;23;20371;-79
2023/05/30 00:03:50;;;;;;;7.60;4.20;;;;;;;15.72;63.46;97567.53;6154398;23;20383;-78
2023/05/30 00:06:17;;;;;;;9.68;4.00;;;;;;;15.57;63.88;97572.97;6154972;23;20374;-78
2023/05/30 00:08:44;;;;;;;11.13;4.27;;;;;;;15.58;64.07;97568.44;6128560;23;20433;-78
2023/05/30 00:11:14;;;;;;;8.30;3.87;;;;;;;15.58;64.11;97579.91;6155144;23;20375;-78
2023/05/30 00:13:44;;;;;;;11.75;4.53;;;;;;;15.68;64.51;97576.38;6154798;23;20454;-78
2023/05/30 00:16:11;;;;;;;10.23;4.40;;;;;;;15.71;64.25;97584.63;6154927;23;20875;-78
2023/05/30 00:18:38;;;;;;;8.48;4.10;;;;;;;15.63;64.08;97581.78;6155076;23;20456;-78
2023/05/30 00:21:05;;;;;;;8.18;4.10;;;;;;;15.45;64.94;97586.66;6128895;23;20379;-79
2023/05/30 00:23:35;;;;;;;9.40;4.30;;;;;;;15.47;65.01;97581.84;6128405;23;20375;-78
2023/05/30 00:26:03;;;;;;;8.75;4.30;;;;;;;15.45;65.20;97589.31;6155281;23;20454;-79
2023/05/30 00:28:29;;;;;;;10.15;4.45;;;;;;;15.44;65.29;97589.59;6155299;23;20386;-78
2023/05/30 00:30:55;;;;;;;11.10;4.35;;;;;;;15.42;65.34;97589.06;6155141;23;20462;-79
2023/05/30 00:33:22;;;;;;;7.68;4.45;;;;;;;15.33;65.80;97591.53;6155376;23;20371;-78
2023/05/30 00:35:48;;;;;;;12.77;4.30;;;;;;;15.39;65.63;97595.78;6155195;23;20370;-78
2023/05/30 00:38:15;;;;;;;7.45;4.22;;;;;;;15.45;64.91;97593.84;6155478;23;20383;-79
2023/05/30 00:40:42;;;;;;;8.40;4.72;;;;;;;15.52;64.76;97601.56;6155062;23;20454;-81
2023/05/30 00:43:09;;;;;;;13.35;4.43;;;;;;;15.55;64.63;97593.03;6129294;23;20379;-78
2023/05/30 00:45:35;;;;;;;10.48;4.53;;;;;;;15.53;64.94;97589.81;6129061;23;20437;-78
2023/05/30 00:48:02;;;;;;;9.38;4.32;;;;;;;15.57;64.67;97594.34;6155009;23;20406;-79
2023/05/30 00:50:30;;;;;;;9.00;4.63;;;;;;;15.64;64.90;97594.81;6155416;23;20390;-79
2023/05/30 00:52:58;;;;;;;9.25;4.40;;;;;;;15.72;64.45;97586.22;6155301;23;20894;-79
2023/05/30 00:55:26;;;;;;;9.00;4.50;;;;;;;15.65;64.43;97587.59;6156639;23;20378;-78
2023/05/30 00:57:54;;;;;;;11.23;4.38;;;;;;;15.57;64.89;97590.88;6157550;23;20369;-80
2023/05/30 01:00:23;;;;;;;11.95;4.18;;;;;;;15.46;65.22;97587.47;6157520;23;20367;-80
2023/05/30 01:02:50;;;;;;;8.82;4.15;;;;;;;15.42;65.48;97581.06;6157494;23;20367;-78
2023/05/30 01:05:16;;;;;;;9.90;4.20;;;;;;;15.50;65.56;97586.63;6157712;23;20367;-80
2023/05/30 01:07:43;;;;;;;9.95;4.25;;;;;;;15.35;66.06;97592.03;6157680;23;20708;-78
2023/05/30 01:10:11;;;;;;;10.27;4.30;;;;;;;15.31;66.06;97591.03;6131489;23;20387;-79
2023/05/30 01:12:46;;;;;;;13.93;5.18;;;;;;;15.26;66.56;97591.03;6157605;23;20815;-78
2023/05/30 01:15:18;;;;;;;8.60;4.35;;;;;;;15.26;67.02;97590.25;6131196;23;20409;-79
2023/05/30 01:17:52;;;;;;;7.95;4.10;;;;;;;15.21;67.18;97587.59;6157931;23;20699;-80
2023/05/30 01:20:22;;;;;;;10.70;4.47;;;;;;;15.13;67.20;97586.31;6157505;23;20422;-79
2023/05/30 01:23:06;;;;;;;8.97;4.30;;;;;;;15.21;67.14;97583.06;6158009;23;20414;-80
2023/05/30 01:25:45;;;;;;;10.65;4.18;;;;;;;15.21;66.98;97587.59;6130360;23;20441;-78
2023/05/30 01:28:15;;;;;;;8.45;4.80;;;;;;;15.13;68.05;97585.50;6156281;23;20865;-79
2023/05/30 01:30:45;;;;;;;10.10;4.20;;;;;;;15.09;68.10;97582.63;6156280;23;20390;-78
2023/05/30 01:33:13;;;;;;;10.57;4.30;;;;;;;15.03;68.12;97576.50;6155993;23;20364;-79
2023/05/30 01:35:41;;;;;;;8.15;4.07;;;;;;;15.09;68.14;97586.06;6155971;23;20787;-78
2023/05/30 01:38:07;;;;;;;11.55;4.35;;;;;;;15.14;68.02;97571.91;6156324;23;20469;-78
2023/05/30 01:40:34;;;;;;;10.02;4.88;;;;;;;15.09;67.54;97567.41;6155909;23;20394;-78
2023/05/30 01:43:11;;;;;;;9.55;4.60;;;;;;;15.07;67.84;97564.22;6155526;23;20371;-78
2023/05/30 01:45:51;;;;;;;13.30;4.93;;;;;;;15.14;68.10;97558.56;6155722;23;20795;-79
2023/05/30 01:48:27;;;;;;;11.27;4.50;;;;;;;15.09;68.60;97564.75;6155705;23;20823;-78
2023/05/30 01:50:56;;;;;;;8.30;4.80;;;;;;;15.02;68.77;97564.25;6155942;23;20363;-78
2023/05/30 01:53:26;;;;;;;8.18;4.22;;;;;;;15.11;68.65;97562.59;6155779;23;20375;-78
2023/05/30 01:55:58;;;;;;;7.03;4.05;;;;;;;15.01;68.29;97567.19;6156258;23;20386;-78
2023/05/30 01:58:27;;;;;;;14.35;5.68;;;;;;;15.01;68.98;97569.84;6155814;23;21264;-78
2023/05/30 02:00:57;;;;;;;11.18;4.47;;;;;;;14.99;68.69;97564.78;6156381;23;20856;-78
2023/05/30 02:03:24;;;;;;;9.25;4.50;;;;;;;14.83;69.48;97571.25;6155549;23;20808;-78
2023/05/30 02:05:50;;;;;;;10.48;4.80;;;;;;;14.75;70.03;97571.03;6156294;23;20449;-78
2023/05/30 02:08:16;;;;;;;10.57;4.75;;;;;;;14.79;70.14;97564.09;6156630;23;20363;-78
2023/05/30 02:10:42;;;;;;;10.23;4.63;;;;;;;14.80;70.13;97573.69;6156309;23;20367;-79
2023/05/30 02:13:08;;;;;;;8.60;4.60;;;;;;;14.71;70.13;97565.47;6156310;23;20371;-78
2023/05/30 02:15:35;;;;;;;13.13;4.93;;;;;;;14.67;70.45;97570.53;6155990;23;20378;-78
2023/05/30 02:18:02;;;;;;;8.10;4.38;;;;;;;14.65;71.02;97571.88;6155838;23;20700;-78
2023/05/30 02:20:29;;;;;;;9.88;4.63;;;;;;;14.46;71.63;97573.53;6156275;23;20382;-78
2023/05/30 02:22:55;;;;;;;10.80;4.60;;;;;;;14.55;71.83;97575.38;6156545;23;20375;-78
2023/05/30 02:25:21;;;;;;;10.33;4.83;;;;;;;14.59;71.49;97572.94;6155601;23;20458;-78
2023/05/30 02:27:49;;;;;;;9.48;4.75;;;;;;;14.50;72.11;97569.28;6156486;23;20843;-78
2023/05/30 02:30:15;;;;;;;9.77;4.45;;;;;;;14.50;72.27;97567.41;6156060;23;20685;-79
2023/05/30 02:32:41;;;;;;;10.85;4.72;;;;;;;14.43;72.33;97568.75;6155992;23;20367;-78
2023/05/30 02:35:09;;;;;;;9.95;4.95;;;;;;;14.38;73.01;97572.22;6155817;23;20446;-79
2023/05/30 02:37:36;;;;;;;8.70;4.90;;;;;;;14.33;73.13;97572.22;6155942;23;20434;-78
2023/05/30 02:40:02;;;;;;;9.57;4.53;;;;;;;14.26;73.82;97579.69;6156257;23;20382;-78
2023/05/30 02:42:30;;;;;;;10.10;4.40;;;;;;;14.32;73.98;97583.94;6156124;23;20378;-78
2023/05/30 02:44:56;;;;;;;7.75;4.25;;;;;;;14.25;74.57;97572.75;6155986;23;20386;-78
2023/05/30 02:47:22;;;;;;;9.50;4.50;;;;;;;14.16;75.18;97582.34;6156521;23;20372;-78
2023/05/30 02:49:48;;;;;;;8.25;4.50;;;;;;;14.15;75.06;97589.53;6156518;23;20368;-79
2023/05/30 02:52:16;;;;;;;9.43;4.38;;;;;;;14.02;75.80;97594.63;6156494;23;20367;-78
2023/05/30 02:54:43;;;;;;;10.65;4.63;;;;;;;13.92;76.01;97582.13;6156017;23;20375;-79
2023/05/30 02:57:09;;;;;;;9.93;4.70;;;;;;;13.92;76.65;97587.44;6156421;23;20422;-78
2023/05/30 02:59:36;;;;;;;12.82;4.90;;;;;;;14.01;76.44;97585.03;6156981;23;20386;-78
2023/05/30 03:02:02;;;;;;;9.52;4.68;;;;;;;13.86;76.66;97588.50;6157566;23;20367;-78
2023/05/30 03:04:28;;;;;;;8.23;4.70;;;;;;;13.94;77.31;97593.28;6156152;23;20397;-78
2023/05/30 03:06:55;;;;;;;11.73;4.65;;;;;;;13.87;77.75;97588.25;6156949;23;20367;-78
2023/05/30 03:09:23;;;;;;;8.52;4.63;;;;;;;13.90;78.20;97589.59;6156675;23;20395;-78
2023/05/30 03:11:49;;;;;;;7.82;4.43;;;;;;;13.85;79.07;97592.22;6156433;23;20378;-78
2023/05/30 03:14:16;;;;;;;9.93;4.28;;;;;;;13.80;79.72;97592.25;6156027;23;20394;-79
2023/05/30 03:16:42;;;;;;;9.32;4.70;;;;;;;13.71;79.56;97593.81;6157044;23;20680;-78
2023/05/30 03:19:08;;;;;;;8.27;4.50;;;;;;;13.83;79.32;97592.50;6157127;23;20415;-78
2023/05/30 03:21:36;;;;;;;12.23;4.38;;;;;;;13.74;79.91;97595.97;6156832;23;20372;-79
2023/05/30 03:24:03;;;;;;;9.60;4.72;;;;;;;13.69;80.25;97590.63;6157040;23;20410;-80
2023/05/30 03:26:30;;;;;;;9.45;4.55;;;;;;;13.67;80.59;97595.44;6157405;23;20375;-80
2023/05/30 03:28:56;;;;;;;8.15;4.70;;;;;;;13.65;81.42;97594.91;6157531;23;20391;-79
2023/05/30 03:31:22;;;;;;;7.28;4.40;;;;;;;13.60;81.57;97594.91;6156996;23;20371;-79
2023/05/30 03:33:49;;;;;;;12.48;4.55;;;;;;;13.61;81.83;97597.28;6157579;23;20371;-79
2023/05/30 03:36:16;;;;;;;11.50;4.85;;;;;;;13.53;82.08;97600.47;6157392;23;20379;-80
2023/05/30 03:38:43;;;;;;;11.07;4.90;;;;;;;13.56;82.42;97600.72;6157193;23;20389;-81
2023/05/30 03:41:09;;;;;;;11.73;4.68;;;;;;;13.53;82.71;97603.13;6157239;23;20410;-81
2023/05/30 03:43:37;;;;;;;19.00;6.43;;;;;;;13.55;83.37;97607.13;6157318;23;20379;-78
2023/05/30 03:46:03;;;;;;;11.50;5.28;;;;;;;13.43;83.39;97606.56;6157642;23;20399;-80
2023/05/30 03:48:29;;;;;;;11.20;5.30;;;;;;;13.36;84.43;97608.69;6157730;23;20772;-81
2023/05/30 03:50:55;;;;;;;9.18;5.10;;;;;;;13.40;84.41;97604.44;6157632;23;20403;-79
2023/05/30 03:53:22;;;;;;;14.98;5.55;;;;;;;13.33;85.44;97603.88;6157658;23;20910;-80
2023/05/30 03:55:48;;;;;;;8.45;4.95;;;;;;;13.40;86.15;97607.09;6156807;23;20371;-80
2023/05/30 03:58:14;;;;;;;11.35;5.55;;;;;;;13.38;86.07;97611.88;6157452;23;20371;-81
2023/05/30 04:00:42;;;;;;;10.65;4.68;;;;;;;13.36;87.82;97615.88;6156942;23;20402;-79
2023/05/30 04:03:09;;;;;;;11.07;5.40;;;;;;;13.38;87.98;97621.72;6155888;23;20371;-79
2023/05/30 04:05:35;;;;;;;9.35;4.55;;;;;;;13.39;87.77;97620.66;6155712;23;20454;-78
2023/05/30 04:08:02;;;;;;;10.90;5.13;;;;;;;13.40;88.17;97617.72;6130407;23;20383;-80
2023/05/30 04:10:28;;;;;;;11.85;5.22;;;;;;;13.48;88.13;97619.06;6156128;23;20378;-79
2023/05/30 04:12:54;;;;;;;12.77;5.20;;;;;;;13.52;88.08;97623.63;6155543;23;20371;-80
2023/05/30 04:15:20;;;;;;;13.23;5.00;;;;;;;13.51;89.16;97630.00;6155473;23;20466;-78
2023/05/30 04:17:48;;;;;;;8.88;4.57;;;;;;;13.58;89.13;97627.06;6155832;23;20417;-79
2023/05/30 04:20:15;;;;;;;8.88;4.50;;;;;;;13.64;88.56;97633.19;6155399;23;20720;-79
2023/05/30 04:22:41;;;;;;;11.60;4.85;;;;;;;13.71;87.83;97633.72;6155853;23;20395;-79
2023/05/30 04:25:08;;;;;;;14.30;5.15;;;;;;;13.77;87.98;97641.44;6154390;23;20413;-79
2023/05/30 04:27:36;;;;;;;11.80;5.10;;;;;;;13.89;87.08;97641.22;6155369;23;20375;-79
2023/05/30 04:30:03;;;;;;;8.82;4.53;;;;;;;13.94;86.32;97649.19;6155295;23;20394;-79
2023/05/30 04:32:33;;;;;;;11.43;4.82;;;;;;;13.99;86.24;97637.72;6155094;23;20399;-79
2023/05/30 04:35:01;;;;;;;8.63;4.72;;;;;;;14.07;86.43;97639.84;6155381;23;20454;-79
2023/05/30 04:37:27;;;;;;;10.20;5.10;;;;;;;14.15;85.38;97642.00;6128800;23;20870;-79
2023/05/30 04:39:55;;;;;;;9.98;5.55;;;;;;;14.17;84.90;97648.66;6154802;23;20414;-79
2023/05/30 04:42:27;;;;;;;12.02;5.15;;;;;;;14.20;85.52;97653.47;6154336;23;20371;-79
2023/05/30 04:44:54;;;;;;;12.65;5.60;;;;;;;14.25;84.96;97660.63;6154361;23;20417;-78
2023/05/30 04:47:24;;;;;;;9.40;4.88;;;;;;;14.21;85.86;97656.88;6154895;23;20394;-79
2023/05/30 04:49:53;;;;;;;14.80;5.38;;;;;;;14.19;85.79;97659.03;6155538;23;20363;-79
2023/05/30 04:52:21;;;;;;;9.55;4.82;;;;;;;14.27;85.81;97659.31;6154424;23;20371;-78
2023/05/30 04:54:47;;;;;;;14.02;5.55;;;;;;;14.33;86.19;97666.22;6154573;23;20862;-78
2023/05/30 04:57:13;;;;;;;9.40;4.83;;;;;;;14.36;86.89;97664.88;6154344;23;20897;-78
2023/05/30 04:59:40;;;;;;;11.50;5.05;;;;;;;14.40;86.10;97665.16;6154552;23;20404;-78
2023/05/30 05:02:08;;;;;;;11.68;4.93;;;;;;;14.48;85.84;97669.97;6155097;23;20367;-80
2023/05/30 05:04:34;;;;;;;10.07;4.82;;;;;;;14.52;86.13;97673.66;6154993;23;20379;-78
2023/05/30 05:07:00;;;;;;;9.80;5.05;;;;;;;14.62;84.11;97671.00;6155430;23;20703;-78
2023/05/30 05:09:28;;;;;;;9.68;5.38;;;;;;;14.65;84.11;97676.59;6155529;23;20418;-78
2023/05/30 05:11:55;;;;;;;13.57;5.75;;;;;;;14.75;83.98;97678.41;6154671;23;20375;-78
2023/05/30 05:14:21;;;;;;;12.95;5.13;;;;;;;14.80;84.49;97683.75;6154992;23;20458;-79
2023/05/30 05:16:48;;;;;;;11.52;5.40;;;;;;;14.82;84.85;97683.47;6156536;23;20367;-78
2023/05/30 05:19:14;;;;;;;11.20;5.03;;;;;;;14.87;85.55;97684.28;6154320;23;20379;-78
2023/05/30 05:21:41;;;;;;;12.15;5.18;;;;;;;15.00;83.79;97673.03;6155027;23;21061;-78
2023/05/30 05:24:07;;;;;;;13.95;4.97;;;;;;;14.99;83.86;97674.09;6154735;23;20390;-80
2023/05/30 05:26:35;;;;;;;13.85;5.07;;;;;;;15.07;83.59;97680.72;6154953;23;20367;-79
2023/05/30 05:29:01;;;;;;;11.65;5.07;;;;;;;15.13;83.59;97681.50;6156770;23;20370;-79
2023/05/30 05:31:29;;;;;;;14.40;5.28;;;;;;;15.25;83.70;97679.34;6155592;23;20765;-80
2023/05/30 05:33:55;;;;;;;13.10;5.07;;;;;;;15.30;83.75;97680.09;6153996;23;20378;-82
2023/05/30 05:36:21;;;;;;;11.10;5.38;;;;;;;15.46;81.43;97683.50;6156353;23;20378;-78
2023/05/30 05:38:48;;;;;;;12.23;5.40;;;;;;;15.52;81.40;97685.06;6155683;23;20382;-79
2023/05/30 05:41:14;;;;;;;11.63;5.03;;;;;;;15.62;80.04;97685.03;6156966;23;20484;-79
2023/05/30 05:43:41;;;;;;;11.88;5.20;;;;;;;15.66;80.15;97688.75;6158089;23;20398;-78
2023/05/30 05:46:08;;;;;;;10.88;5.00;;;;;;;15.74;80.89;97695.38;6157562;23;20378;-79
2023/05/30 05:48:34;;;;;;;11.87;5.07;;;;;;;15.82;79.66;97706.25;6157135;23;20838;-79
2023/05/30 05:51:00;;;;;;;12.23;5.07;;;;;;;15.86;78.60;97707.28;6157560;23;20371;-78
2023/05/30 05:53:26;;;;;;;14.30;4.97;;;;;;;15.86;79.21;97701.19;6158075;23;20378;-79
2023/05/30 05:55:53;;;;;;;12.52;5.40;;;;;;;15.90;79.14;97702.22;6157481;23;20449;-79
2023/05/30 05:58:19;;;;;;;13.73;5.20;;;;;;;15.94;79.58;97692.56;6159550;23;20458;-79
2023/05/30 06:00:47;;;;;;;12.52;5.13;;;;;;;15.99;79.38;97705.91;6159187;23;20371;-82
2023/05/30 06:03:13;;;;;;;17.05;6.07;;;;;;;16.03;79.46;97701.59;6157543;23;20433;-79
2023/05/30 06:05:40;;;;;;;11.20;5.28;;;;;;;16.11;79.48;97695.66;6157186;23;20371;-79
2023/05/30 06:08:06;;;;;;;12.13;5.25;;;;;;;16.20;79.25;97702.00;6157240;23;20824;-78
2023/05/30 06:10:32;;;;;;;15.15;5.35;;;;;;;16.17;77.46;97701.75;6156617;23;20918;-78
2023/05/30 06:12:58;;;;;;;10.27;5.03;;;;;;;16.24;78.07;97712.91;6157055;23;20370;-78
2023/05/30 06:15:25;;;;;;;12.02;5.32;;;;;;;16.30;77.64;97716.34;6157804;23;20513;-79
2023/05/30 06:17:52;;;;;;;10.88;4.65;;;;;;;16.37;76.67;97716.84;6133079;23;20393;-79
2023/05/30 06:20:18;;;;;;;11.40;4.68;;;;;;;16.48;76.87;97724.47;6158391;23;20402;-77
2023/05/30 06:22:44;;;;;;;12.63;4.63;;;;;;;16.59;74.00;97720.66;6158401;23;20420;-79
2023/05/30 06:25:11;;;;;;;11.97;5.10;;;;;;;16.68;74.65;97723.53;6158060;23;20831;-78
2023/05/30 06:27:37;;;;;;;15.52;5.10;;;;;;;16.71;75.65;97720.28;6158586;23;20398;-78
2023/05/30 06:30:05;;;;;;;12.30;4.57;;;;;;;16.83;76.07;97719.91;6158552;23;20367;-79
2023/05/30 06:32:32;;;;;;;12.75;4.35;;;;;;;16.93;76.14;97727.81;6158440;23;20688;-79
2023/05/30 06:34:59;;;;;;;12.65;5.30;;;;;;;16.98;74.99;97725.91;6157348;23;20824;-78
2023/05/30 06:37:25;;;;;;;11.40;4.63;;;;;;;17.09;74.42;97737.28;6158404;23;20378;-79
2023/05/30 06:39:51;;;;;;;13.90;4.63;;;;;;;17.13;73.25;97735.66;6158330;23;20417;-78
2023/05/30 06:42:18;;;;;;;12.32;4.90;;;;;;;17.13;71.59;97735.66;6157907;23;20454;-77
2023/05/30 06:44:44;;;;;;;15.32;4.95;;;;;;;17.20;71.36;97737.97;6156873;23;20371;-78
2023/05/30 06:47:10;;;;;;;11.65;4.80;;;;;;;17.18;71.96;97742.81;6157954;23;20397;-77
2023/05/30 06:49:36;;;;;;;11.50;4.65;;;;;;;17.27;72.01;97739.22;6157382;23;20445;-78
2023/05/30 06:52:04;;;;;;;14.00;4.93;;;;;;;17.25;70.48;97744.06;6157286;23;20470;-77
2023/05/30 06:54:31;;;;;;;12.88;5.22;;;;;;;17.31;72.69;97739.44;6157082;23;20375;-77
2023/05/30 06:57:02;;;;;;;14.93;5.30;;;;;;;17.29;70.48;97738.94;6155857;23;20387;-78
2023/05/30 06:59:28;;;;;;;10.63;4.43;;;;;;;17.29;71.38;97738.94;6156624;23;20867;-78
2023/05/30 07:01:55;;;;;;;9.32;4.55;;;;;;;17.27;70.71;97741.09;6155444;23;20375;-78
2023/05/30 07:04:23;;;;;;;10.52;4.65;;;;;;;17.35;70.95;97738.59;6156520;23;20374;-81
2023/05/30 07:06:49;;;;;;;19.20;5.07;;;;;;;17.45;71.28;97740.34;6157688;23;20782;-81
2023/05/30 07:09:17;;;;;;;13.60;4.72;;;;;;;17.61;71.10;97733.75;6158412;23;20458;-83
2023/05/30 07:11:43;;;;;;;16.35;4.95;;;;;;;17.70;70.96;97737.38;6158800;23;20703;-84
2023/05/30 07:14:11;;;;;;;10.27;4.53;;;;;;;17.79;68.87;97735.66;6158395;23;20371;-84
2023/05/30 07:16:37;;;;;;;18.95;5.10;;;;;;;17.81;68.13;97731.91;6160679;23;20397;-82
2023/05/30 07:19:03;;;;;;;21.50;5.43;;;;;;;17.87;68.81;97734.22;6152420;23;20437;-83
2023/05/30 07:21:29;;;;;;;12.93;4.68;;;;;;;17.87;68.63;97738.78;6152383;23;20374;-82
2023/05/30 07:23:56;;;;;;;27.17;5.97;;;;;;;17.97;67.95;97734.06;6156192;23;20382;-76
2023/05/30 07:26:23;;;;;;;25.55;5.40;;;;;;;18.05;67.96;97733.41;6156631;23;20434;-78
2023/05/30 07:28:52;;;;;;;18.88;4.75;;;;;;;18.11;67.30;97736.81;6156218;23;20367;-78
2023/05/30 07:31:19;;;;;;;18.00;4.47;;;;;;;18.11;68.29;97742.97;6155649;23;20402;-77
2023/05/30 07:33:45;;;;;;;12.80;4.57;;;;;;;18.19;67.11;97750.34;6155996;23;20851;-77
2023/05/30 07:36:11;;;;;;;12.98;4.65;;;;;;;18.31;66.50;97749.09;6156191;23;20374;-77
2023/05/30 07:38:38;;;;;;;10.85;4.32;;;;;;;18.23;64.37;97742.53;6156342;23;20863;-78
2023/05/30 07:41:04;;;;;;;13.55;4.50;;;;;;;18.34;65.25;97743.97;6129757;23;20433;-78
2023/05/30 07:43:31;;;;;;;12.20;4.50;;;;;;;18.38;66.84;97744.97;6155238;23;20375;-77
2023/05/30 07:45:58;;;;;;;13.35;4.35;;;;;;;18.38;66.46;97742.28;6156211;23;20748;-77
2023/05/30 07:48:24;;;;;;;11.30;4.53;;;;;;;18.46;65.27;97744.31;6155472;23;20951;-77
2023/05/30 07:50:50;;;;;;;17.67;4.60;;;;;;;18.52;63.88;97735.09;6154132;23;20375;-80
2023/05/30 07:53:16;;;;;;;11.23;4.72;;;;;;;18.61;64.38;97739.81;6155449;23;20378;-79
2023/05/30 07:55:43;;;;;;;16.50;5.55;;;;;;;18.58;65.61;97743.88;6154459;23;20394;-80
2023/05/30 07:58:09;;;;;;;10.55;4.43;;;;;;;18.58;64.17;97737.69;6154478;23;20448;-79
2023/05/30 08:00:36;;;;;;;10.30;4.47;;;;;;;18.70;64.00;97741.53;6154251;23;20383;-79
2023/05/30 08:03:02;;;;;;;11.57;4.43;;;;;;;18.72;64.43;97739.31;6154071;23;20371;-80
2023/05/30 08:05:29;;;;;;;10.95;4.60;;;;;;;18.74;61.16;97741.72;6153780;23;20367;-79
2023/05/30 08:07:55;;;;;;;13.30;4.47;;;;;;;18.82;62.42;97739.16;6154383;23;20388;-78
2023/05/30 08:10:21;;;;;;;10.05;4.53;;;;;;;18.96;63.22;97736.50;6154591;23;20359;-79
2023/05/30 08:12:48;;;;;;;13.88;4.70;;;;;;;19.11;63.47;97738.91;6154104;23;20378;-80
2023/05/30 08:15:14;;;;;;;10.63;4.63;;;;;;;19.24;62.04;97742.69;6154200;23;20380;-79
2023/05/30 08:17:41;;;;;;;14.60;4.63;;;;;;;19.32;61.19;97745.47;6154277;23;20440;-79
2023/05/30 08:20:08;;;;;;;12.27;5.20;;;;;;;19.46;60.81;97742.78;6155513;23;20444;-79
2023/05/30 08:22:36;;;;;;;11.05;4.65;;;;;;;19.46;58.61;97732.06;6153621;23;20923;-79
2023/05/30 08:25:02;;;;;;;11.90;4.50;;;;;;;19.51;58.85;97734.66;6154611;23;20378;-80
2023/05/30 08:27:29;;;;;;;14.75;4.35;;;;;;;19.65;61.47;97737.31;6155397;23;20395;-79
2023/05/30 08:29:55;;;;;;;15.68;5.03;;;;;;;19.78;60.11;97736.50;6155310;23;20402;-79
2023/05/30 08:32:22;;;;;;;17.20;5.07;;;;;;;19.81;60.11;97733.22;6155318;23;20451;-77
2023/05/30 08:34:49;;;;;;;15.43;4.75;;;;;;;19.95;60.56;97738.56;6154184;23;20410;-78
2023/05/30 08:37:15;;;;;;;13.45;5.13;;;;;;;20.06;59.92;97737.25;6155414;23;20409;-79
2023/05/30 08:39:42;;;;;;;11.15;4.82;;;;;;;20.02;56.65;97730.88;6154651;23;20386;-79
2023/05/30 08:42:09;;;;;;;14.53;4.80;;;;;;;20.06;58.33;97732.66;6155135;23;20458;-79
2023/05/30 08:44:35;;;;;;;13.73;4.57;;;;;;;20.29;58.40;97725.41;6154646;23;20371;-79
2023/05/30 08:47:02;;;;;;;11.75;4.65;;;;;;;20.29;58.22;97727.31;6152200;23;20375;-78
2023/05/30 08:49:32;;;;;;;10.53;4.90;;;;;;;20.31;57.53;97733.16;6154037;23;20370;-78
2023/05/30 08:52:02;;;;;;;16.00;4.65;;;;;;;20.49;58.19;97740.28;6154652;23;20367;-78
2023/05/30 08:54:36;;;;;;;13.57;4.63;;;;;;;20.59;58.75;97740.03;6154889;23;20480;-77
2023/05/30 08:57:07;;;;;;;13.27;4.65;;;;;;;20.69;57.34;97730.91;6154948;23;20826;-79
2023/05/30 08:59:34;;;;;;;11.37;4.50;;;;;;;20.62;55.83;97727.84;6154921;23;20389;-79
2023/05/30 09:02:00;;;;;;;12.80;4.80;;;;;;;20.72;56.64;97720.34;6155827;23;20371;-79
2023/05/30 09:04:27;;;;;;;12.60;4.72;;;;;;;20.83;57.02;97729.72;6155309;23;20371;-78
2023/05/30 09:06:57;;;;;;;12.27;5.10;;;;;;;21.04;56.60;97721.13;6154424;23;20383;-79
2023/05/30 09:09:29;;;;;;;16.80;4.97;;;;;;;21.09;56.36;97723.69;6155166;23;20394;-79
2023/05/30 09:11:55;;;;;;;12.85;4.65;;;;;;;21.18;55.22;97716.47;6128449;23;20715;-79
2023/05/30 09:14:21;;;;;;;11.52;4.53;;;;;;;21.31;54.99;97717.44;6155677;23;21000;-79
2023/05/30 09:16:48;;;;;;;12.23;4.28;;;;;;;21.38;55.59;97717.78;6155733;23;20936;-78
2023/05/30 09:19:14;;;;;;;17.77;4.38;;;;;;;21.43;55.18;97723.00;6154854;23;20406;-78
2023/05/30 09:21:41;;;;;;;14.43;4.85;;;;;;;21.58;56.28;97723.38;6155231;23;20371;-76
2023/05/30 09:24:07;;;;;;;12.10;4.35;;;;;;;21.75;54.95;97722.63;6155217;23;20378;-78
2023/05/30 09:26:35;;;;;;;15.98;4.38;;;;;;;21.87;55.49;97720.13;6156571;23;20371;-79
2023/05/30 09:29:11;;;;;;;16.45;4.93;;;;;;;21.98;53.27;97718.72;6155246;23;20755;-78
2023/05/30 09:31:38;;;;;;;13.32;4.53;;;;;;;22.08;52.54;97719.50;6156243;23;20374;-80
2023/05/30 09:34:05;;;;;;;12.00;4.22;;;;;;;22.02;52.66;97720.78;6155773;23;20743;-78
2023/05/30 09:36:32;;;;;;;11.30;4.18;;;;;;;22.14;52.49;97723.63;6156624;23;20435;-77
2023/05/30 09:39:05;;;;;;;16.60;4.50;;;;;;;22.26;53.61;97729.97;6154840;23;20473;-79
2023/05/30 09:41:33;;;;;;;9.63;3.85;;;;;;;22.34;53.79;97721.06;6157073;23;20386;-78
2023/05/30 09:44:05;;;;;;;11.25;4.45;;;;;;;22.47;51.86;97726.63;6157981;23;20398;-78
2023/05/30 09:46:32;;;;;;;43.00;6.00;;;;;;;22.48;51.42;97720.91;6158137;23;20676;-77
2023/05/30 09:48:58;;;;;;;13.70;4.40;;;;;;;22.60;51.84;97729.16;6158352;23;20375;-79
2023/05/30 09:51:25;;;;;;;10.75;4.22;;;;;;;22.76;51.65;97726.75;6158681;23;20374;-77
2023/05/30 09:53:56;;;;;;;13.63;4.18;;;;;;;22.91;51.50;97731.66;6158493;23;20375;-80
2023/05/30 09:56:30;;;;;;;12.50;3.80;;;;;;;22.91;51.10;97728.16;6158285;23;20364;-78
2023/05/30 09:59:01;;;;;;;9.25;4.03;;;;;;;23.04;50.90;97727.16;6158387;23;20460;-78
2023/05/30 10:01:36;;;;;;;11.75;4.55;;;;;;;23.28;50.40;97730.06;6158623;23;20827;-78
2023/05/30 10:04:11;;;;;;;13.73;4.45;;;;;;;23.51;49.82;97723.31;6158961;23;20815;-79
2023/05/30 10:06:41;;;;;;;8.32;3.90;;;;;;;23.78;48.68;97723.94;6158621;23;20371;-78
2023/05/30 10:09:08;;;;;;;13.85;4.10;;;;;;;23.75;45.32;97721.91;6132149;23;20444;-78
2023/05/30 10:11:35;;;;;;;12.17;3.80;;;;;;;23.96;46.75;97721.91;6157458;23;20375;-78
2023/05/30 10:14:03;;;;;;;19.42;4.13;;;;;;;24.45;48.28;97717.53;6158313;23;20743;-79
2023/05/30 10:16:34;;;;;;;10.20;3.53;;;;;;;24.89;46.52;97708.63;6157998;23;20371;-78
2023/05/30 10:19:02;;;;;;;9.60;4.22;;;;;;;25.26;45.29;97708.72;6157639;23;20390;-78
2023/05/30 10:21:32;;;;;;;11.23;4.13;;;;;;;25.70;43.99;97702.38;6154219;23;20367;-77
2023/05/30 10:24:01;;;;;;;10.63;3.55;;;;;;;25.86;42.57;97701.69;6128802;23;20473;-78
2023/05/30 10:26:34;;;;;;;11.65;3.90;;;;;;;26.13;43.25;97703.63;6155791;23;20372;-77
2023/05/30 10:29:06;;;;;;;15.18;4.45;;;;;;;26.28;43.33;97694.78;6155338;23;20425;-79
2023/05/30 10:31:34;;;;;;;13.32;3.30;;;;;;;26.57;42.37;97686.25;6153904;23;20367;-79
2023/05/30 10:34:03;;;;;;;11.02;3.72;;;;;;;26.84;42.62;97687.34;6154655;23;20766;-80
2023/05/30 10:36:30;;;;;;;11.50;3.80;;;;;;;26.99;40.21;97690.47;6156297;23;20367;-78
2023/05/30 10:39:07;;;;;;;8.65;3.63;;;;;;;27.13;39.41;97682.66;6154928;23;20387;-78
2023/05/30 10:41:41;;;;;;;12.20;3.90;;;;;;;27.03;39.76;97681.25;6154732;23;20431;-76
2023/05/30 10:44:17;;;;;;;12.52;3.45;;;;;;;27.01;39.59;97688.97;6153660;23;20367;-77
2023/05/30 10:46:53;;;;;;;10.55;3.25;;;;;;;26.79;41.21;97684.09;6155043;23;20842;-76
2023/05/30 10:49:22;;;;;;;9.23;3.50;;;;;;;26.62;41.13;97677.06;6155036;23;20372;-77
2023/05/30 10:52:02;;;;;;;11.35;3.40;;;;;;;26.63;41.79;97680.56;6154695;23;20378;-77
2023/05/30 10:54:30;;;;;;;13.00;3.97;;;;;;;26.39;39.60;97682.28;6154251;23;20371;-77
2023/05/30 10:56:57;;;;;;;10.20;3.72;;;;;;;26.32;40.15;97679.38;6154221;23;20367;-77
2023/05/30 10:59:25;;;;;;;8.40;3.90;;;;;;;26.49;40.28;97670.91;6154648;23;20508;-77
2023/05/30 11:02:00;;;;;;;12.07;3.47;;;;;;;26.54;39.95;97661.72;6154381;23;20450;-77
2023/05/30 11:04:30;;;;;;;10.10;3.67;;;;;;;26.62;41.21;97679.78;6154259;23;20470;-76
2023/05/30 11:06:57;;;;;;;10.40;4.05;;;;;;;26.49;38.38;97667.41;6154265;23;20375;-79
2023/05/30 11:09:25;;;;;;;11.25;3.58;;;;;;;26.64;40.85;97674.78;6153580;23;20369;-78
2023/05/30 11:11:56;;;;;;;9.80;3.63;;;;;;;26.84;38.75;97665.59;6129643;23;20437;-78
2023/05/30 11:14:26;;;;;;;12.65;3.85;;;;;;;27.10;38.00;97683.34;6128922;23;20375;-77
2023/05/30 11:17:00;;;;;;;11.03;4.13;;;;;;;27.17;38.83;97678.88;6154257;23;20371;-78
2023/05/30 11:19:27;;;;;;;10.38;3.85;;;;;;;27.17;37.32;97662.56;6154546;23;20970;-77
2023/05/30 11:21:55;;;;;;;9.40;3.63;;;;;;;27.38;38.18;97662.25;6154234;23;20367;-77
2023/05/30 11:24:22;;;;;;;10.70;3.63;;;;;;;27.50;35.39;97658.66;6127785;23;20378;-77
2023/05/30 11:27:09;;;;;;;10.70;3.22;;;;;;;27.63;38.30;97658.22;6154865;23;20371;-78
2023/05/30 11:29:47;;;;;;;12.50;3.58;;;;;;;27.72;36.38;97652.56;6150196;23;20862;-78